createdAt,value
2022-10-31T00:02:28.384Z,15.40
2022-10-31T00:07:30.471Z,15.34
2022-10-31T00:12:32.261Z,15.27
2022-10-31T00:17:37.007Z,15.19
2022-10-31T00:22:38.763Z,15.11
2022-10-31T00:27:40.557Z,15.05
2022-10-31T00:32:42.427Z,15.00
2022-10-31T00:37:45.037Z,14.93
2022-10-31T00:42:46.990Z,14.87
2022-10-31T00:47:48.803Z,14.83
2022-10-31T00:52:50.626Z,14.80
2022-10-31T00:57:52.574Z,14.74
2022-10-31T01:02:54.644Z,14.70
2022-10-31T01:07:56.604Z,14.66
2022-10-31T01:12:58.567Z,14.63
2022-10-31T01:18:00.978Z,14.62
2022-10-31T01:23:05.690Z,14.60
2022-10-31T01:28:07.569Z,14.57
2022-10-31T01:33:09.356Z,14.56
2022-10-31T01:38:11.116Z,14.50
2022-10-31T01:43:14.649Z,14.49
2022-10-31T01:48:20.493Z,14.45
2022-10-31T01:53:26.042Z,14.42
2022-10-31T01:58:32.266Z,14.39
2022-10-31T02:03:34.408Z,14.35
2022-10-31T02:08:40.159Z,14.34
2022-10-31T02:13:42.142Z,14.30
2022-10-31T02:18:44.906Z,14.27
2022-10-31T02:24:02.487Z,14.24
2022-10-31T02:29:54.528Z,14.21
2022-10-31T02:35:04.218Z,14.18
2022-10-31T02:40:59.888Z,14.16
2022-10-31T02:46:16.446Z,14.15
2022-10-31T02:51:19.464Z,14.12
2022-10-31T02:56:23.271Z,14.10
2022-10-31T03:01:33.993Z,14.08
2022-10-31T03:06:45.222Z,14.08
2022-10-31T03:12:03.911Z,14.06
2022-10-31T03:17:12.490Z,14.04
2022-10-31T03:22:24.761Z,14.03
2022-10-31T03:27:29.883Z,14.01
2022-10-31T03:32:35.326Z,14.00
2022-10-31T03:37:41.654Z,13.99
2022-10-31T03:42:55.903Z,13.97
2022-10-31T03:48:00.400Z,13.94
2022-10-31T03:53:14.553Z,13.92
2022-10-31T03:58:27.999Z,13.89
2022-10-31T04:03:34.149Z,13.86
2022-10-31T04:08:45.336Z,13.83
2022-10-31T04:13:52.615Z,13.82
2022-10-31T04:18:57.871Z,13.79
2022-10-31T04:23:59.781Z,13.78
2022-10-31T04:29:05.095Z,13.76
2022-10-31T04:34:08.477Z,13.74
2022-10-31T04:39:10.347Z,13.74
2022-10-31T04:44:25.986Z,13.74
2022-10-31T04:49:30.032Z,13.77
2022-10-31T04:54:32.299Z,13.77
2022-10-31T05:00:03.603Z,13.76
2022-10-31T05:05:07.302Z,13.73
2022-10-31T05:10:13.544Z,13.70
2022-10-31T05:15:16.002Z,13.68
2022-10-31T05:20:20.092Z,13.67
2022-10-31T05:25:51.207Z,13.67
2022-10-31T05:30:53.259Z,13.67
2022-10-31T05:35:56.613Z,13.70
2022-10-31T05:41:02.205Z,13.70
2022-10-31T05:46:06.648Z,13.69
2022-10-31T05:51:27.212Z,13.70
2022-10-31T05:56:29.132Z,13.69
2022-10-31T06:01:31.076Z,13.69
2022-10-31T06:06:40.337Z,13.67
2022-10-31T06:11:42.761Z,13.66
2022-10-31T06:16:45.008Z,13.68
2022-10-31T06:22:13.415Z,13.78
2022-10-31T06:27:15.414Z,13.81
2022-10-31T06:32:18.403Z,13.82
2022-10-31T06:37:21.153Z,13.85
2022-10-31T06:42:25.415Z,13.88
2022-10-31T06:47:27.578Z,13.93
2022-10-31T06:52:57.168Z,14.00
2022-10-31T06:58:03.040Z,14.10
2022-10-31T07:03:10.215Z,14.20
2022-10-31T07:08:14.637Z,14.30
2022-10-31T07:13:16.668Z,14.41
2022-10-31T07:18:26.208Z,14.55
2022-10-31T07:23:28.191Z,14.70
2022-10-31T07:28:50.039Z,14.84
2022-10-31T07:33:56.067Z,14.99
2022-10-31T07:39:04.152Z,15.11
2022-10-31T07:44:08.964Z,15.24
2022-10-31T07:49:29.402Z,15.36
2022-10-31T07:54:54.227Z,15.47
2022-10-31T07:59:59.033Z,15.61
2022-10-31T08:05:02.928Z,15.71
2022-10-31T08:10:06.152Z,15.83
2022-10-31T08:15:10.401Z,15.94
2022-10-31T08:20:12.594Z,16.05
2022-10-31T08:25:21.072Z,16.15
2022-10-31T08:30:28.530Z,16.25
2022-10-31T08:36:08.852Z,16.37
2022-10-31T08:41:28.285Z,16.49
2022-10-31T08:46:30.364Z,16.59
2022-10-31T08:51:32.385Z,16.67
2022-10-31T08:56:34.633Z,16.75
2022-10-31T09:01:39.729Z,16.83
2022-10-31T09:06:50.340Z,16.91
2022-10-31T09:11:57.846Z,16.98
2022-10-31T09:17:23.819Z,17.07
2022-10-31T09:23:06.994Z,17.15
2022-10-31T09:28:15.171Z,17.24
2022-10-31T09:33:18.764Z,17.32
2022-10-31T09:38:29.564Z,17.36
2022-10-31T09:43:37.359Z,17.42
2022-10-31T09:49:02.218Z,17.48
2022-10-31T09:54:31.270Z,17.54
2022-10-31T09:59:40.388Z,17.60
2022-10-31T10:04:58.258Z,17.65
2022-10-31T10:10:03.044Z,17.69
2022-10-31T10:16:12.731Z,17.72
2022-10-31T10:21:32.446Z,17.75
2022-10-31T10:26:41.520Z,17.79
2022-10-31T10:31:47.080Z,17.80
2022-10-31T10:36:55.743Z,17.83
2022-10-31T10:42:18.596Z,17.83
2022-10-31T10:47:38.604Z,17.84
2022-10-31T10:53:22.613Z,17.84
2022-10-31T10:58:24.563Z,17.85
2022-10-31T11:03:26.586Z,17.87
2022-10-31T11:08:29.839Z,17.86
2022-10-31T11:13:34.127Z,17.88
2022-10-31T11:18:40.350Z,17.87
2022-10-31T11:23:42.307Z,17.82
2022-10-31T11:28:45.324Z,17.79
2022-10-31T11:33:55.719Z,17.79
2022-10-31T11:39:00.813Z,17.81
2022-10-31T11:44:06.547Z,17.82
2022-10-31T11:49:24.672Z,17.84
2022-10-31T11:54:30.794Z,17.81
2022-10-31T11:59:33.207Z,17.79
2022-10-31T12:04:46.160Z,17.78
2022-10-31T12:09:48.263Z,17.79
2022-10-31T12:15:05.473Z,17.81
2022-10-31T12:20:16.235Z,17.81
2022-10-31T12:25:20.621Z,17.83
2022-10-31T12:30:42.217Z,17.87
2022-10-31T12:36:12.495Z,17.88
2022-10-31T12:41:52.967Z,17.88
2022-10-31T12:47:18.777Z,17.89
2022-10-31T12:52:23.130Z,17.90
2022-10-31T12:57:41.306Z,17.89
2022-10-31T13:02:43.084Z,17.89
2022-10-31T13:07:51.844Z,17.90
2022-10-31T13:12:59.542Z,17.88
2022-10-31T13:18:13.116Z,17.88
2022-10-31T13:23:48.947Z,17.90
2022-10-31T13:29:12.066Z,17.90
2022-10-31T13:34:23.383Z,17.90
2022-10-31T13:39:37.335Z,17.89
2022-10-31T13:44:39.562Z,17.89
2022-10-31T13:49:41.546Z,17.87
2022-10-31T13:54:57.034Z,17.88
2022-10-31T14:00:25.589Z,17.87
2022-10-31T14:05:34.023Z,17.84
2022-10-31T14:10:46.918Z,17.83
2022-10-31T14:16:02.265Z,17.77
2022-10-31T14:21:25.893Z,17.74
2022-10-31T14:26:32.867Z,17.67
2022-10-31T14:31:52.828Z,17.63
2022-10-31T14:37:03.556Z,17.58
2022-10-31T14:42:30.224Z,17.53
2022-10-31T14:47:35.177Z,17.44
2022-10-31T14:52:39.193Z,17.36
2022-10-31T14:57:51.112Z,17.29
2022-10-31T15:03:06.683Z,17.18
2022-10-31T15:08:28.346Z,17.07
2022-10-31T15:13:30.358Z,16.94
2022-10-31T15:18:32.248Z,16.82
2022-10-31T15:23:34.246Z,16.72
2022-10-31T15:28:36.163Z,16.62
2022-10-31T15:33:47.865Z,16.52
2022-10-31T15:38:51.785Z,16.42
2022-10-31T15:43:53.720Z,16.35
2022-10-31T15:48:55.649Z,16.28
2022-10-31T15:53:58.928Z,16.20
2022-10-31T15:59:02.768Z,16.11
2022-10-31T16:04:13.857Z,16.04
2022-10-31T16:09:23.519Z,15.96
2022-10-31T16:14:29.423Z,15.93
2022-10-31T16:19:35.431Z,15.89
2022-10-31T16:24:49.386Z,15.87
2022-10-31T16:29:51.335Z,15.81
2022-10-31T16:35:00.722Z,15.77
2022-10-31T16:40:02.596Z,15.73
2022-10-31T16:45:06.979Z,15.69
2022-10-31T16:50:35.295Z,15.67
2022-10-31T16:55:43.055Z,15.66
2022-10-31T17:00:45.455Z,15.60
2022-10-31T17:05:47.435Z,15.55
2022-10-31T17:10:52.463Z,15.53
2022-10-31T17:15:57.103Z,15.50
2022-10-31T17:21:01.738Z,15.47
2022-10-31T17:26:03.662Z,15.45
2022-10-31T17:31:05.867Z,15.43
2022-10-31T17:36:08.034Z,15.41
2022-10-31T17:41:11.443Z,15.38
2022-10-31T17:46:13.634Z,15.37
2022-10-31T17:51:15.503Z,15.36
2022-10-31T17:56:17.343Z,15.36
2022-10-31T18:01:19.625Z,15.38
2022-10-31T18:06:21.702Z,15.38
2022-10-31T18:11:24.044Z,15.37
2022-10-31T18:16:26.831Z,15.36
2022-10-31T18:21:29.359Z,15.34
2022-10-31T18:26:31.390Z,15.32
2022-10-31T18:31:33.272Z,15.31
2022-10-31T18:36:35.323Z,15.29
2022-10-31T18:41:38.686Z,15.26
2022-10-31T18:46:40.535Z,15.23
2022-10-31T18:51:42.358Z,15.19
2022-10-31T18:56:44.653Z,15.15
2022-10-31T19:01:46.849Z,15.08
2022-10-31T19:06:48.834Z,15.03
2022-10-31T19:11:50.838Z,14.96
2022-10-31T19:16:53.854Z,14.90
2022-10-31T19:21:56.846Z,14.85
2022-10-31T19:27:00.657Z,14.79
2022-10-31T19:32:02.589Z,14.75
2022-10-31T19:37:04.851Z,14.72
2022-10-31T19:42:06.725Z,14.68
2022-10-31T19:47:08.593Z,14.63
2022-10-31T19:52:10.324Z,14.63
2022-10-31T19:57:12.264Z,14.64
2022-10-31T20:02:19.841Z,14.61
2022-10-31T20:07:21.604Z,14.61
2022-10-31T20:12:23.549Z,14.62
2022-10-31T20:17:25.628Z,14.66
2022-10-31T20:22:27.506Z,14.71
2022-10-31T20:27:29.299Z,14.73
2022-10-31T20:32:31.401Z,14.67
2022-10-31T20:37:33.257Z,14.64
2022-10-31T20:42:35.113Z,14.66
2022-10-31T20:47:36.941Z,14.69
2022-10-31T20:52:40.669Z,14.75
2022-10-31T20:57:42.508Z,14.80
2022-10-31T21:02:44.666Z,14.85
2022-10-31T21:07:46.448Z,14.87
2022-10-31T21:12:48.409Z,14.84
2022-10-31T21:17:50.287Z,14.80
2022-10-31T21:22:52.116Z,14.78
2022-10-31T21:27:53.979Z,14.77
2022-10-31T21:32:56.023Z,14.75
2022-10-31T21:38:00.904Z,14.73
2022-10-31T21:43:03.201Z,14.69
2022-10-31T21:48:05.497Z,14.64
2022-10-31T21:53:26.098Z,14.62
2022-10-31T21:58:30.607Z,14.57
2022-10-31T22:03:36.869Z,14.55
2022-10-31T22:08:40.699Z,14.56
2022-10-31T22:13:44.362Z,14.55
2022-10-31T22:18:47.102Z,14.54
2022-10-31T22:23:51.886Z,14.46
2022-10-31T22:28:56.292Z,14.40
2022-10-31T22:33:58.636Z,14.36
2022-10-31T22:39:00.583Z,14.34
2022-10-31T22:44:05.186Z,14.29
2022-10-31T22:49:11.216Z,14.21
2022-10-31T22:54:18.372Z,14.15
2022-10-31T22:59:20.758Z,14.11
2022-10-31T23:04:23.669Z,14.06
2022-10-31T23:09:25.566Z,13.99
2022-10-31T23:14:27.502Z,13.92
2022-10-31T23:19:30.516Z,13.87
2022-10-31T23:24:38.874Z,13.79
2022-10-31T23:29:45.310Z,13.71
2022-10-31T23:34:49.303Z,13.63
2022-10-31T23:39:51.544Z,13.61
2022-10-31T23:44:54.366Z,13.59
2022-10-31T23:49:56.204Z,13.58
2022-10-31T23:54:59.846Z,13.57
